| time (UTC) | temp F | wind direction | speed MPH | gust MPH | rain 1hr in | rain 24hr in | rain mn in | humidity % | barometer mb |
| 20260503004613 | 55 | 0 | 0.0 | 0.0 | 0.00 | 0.24 | 0.22 | 95 | 1013.2 |
| 20260503004044 | 55 | 0 | 0.0 | 1.0 | 0.00 | 0.24 | 0.22 | 94 | 1013.2 |
| 20260503003547 | 55 | 0 | 0.0 | 1.0 | 0.00 | 0.24 | 0.22 | 94 | 1013.2 |
| 20260503003056 | 55 | 0 | 0.0 | 1.0 | 0.00 | 0.24 | 0.22 | 94 | 1013.4 |
| 20260503002545 | 55 | 0 | 0.0 | 1.0 | 0.00 | 0.24 | 0.22 | 94 | 1013.4 |
| 20260503002046 | 55 | 0 | 0.0 | 1.0 | 0.01 | 0.24 | 0.22 | 94 | 1013.4 |
| 20260503001552 | 55 | 0 | 0.0 | 1.0 | 0.01 | 0.24 | 0.22 | 94 | 1013.4 |
| 20260503001046 | 55 | 0 | 0.0 | 0.0 | 0.02 | 0.24 | 0.22 | 94 | 1013.5 |
| 20260503000546 | 55 | 0 | 0.0 | 0.0 | 0.03 | 0.24 | 0.22 | 94 | 1013.6 |
| 20260503000105 | 55 | 0 | 0.0 | 0.0 | 0.04 | 0.24 | 0.22 | 94 | 1013.6 |
| 20260502235545 | 55 | 0 | 0.0 | 2.0 | 0.07 | 0.24 | 0.22 | 94 | 1013.6 |
| 20260502235045 | 55 | 0 | 0.0 | 2.0 | 0.07 | 0.24 | 0.22 | 94 | 1013.5 |
| 20260502234600 | 55 | 0 | 0.0 | 2.0 | 0.08 | 0.24 | 0.22 | 94 | 1013.4 |
| 20260502234049 | 55 | 0 | 0.0 | 2.0 | 0.11 | 0.24 | 0.22 | 93 | 1013.6 |
| 20260502233547 | 55 | 0 | 0.0 | 2.0 | 0.13 | 0.24 | 0.22 | 93 | 1013.7 |
| 20260502233052 | 56 | 0 | 0.0 | 2.0 | 0.14 | 0.23 | 0.22 | 93 | 1013.8 |
| 20260502232547 | 56 | 0 | 0.0 | 2.0 | 0.14 | 0.23 | 0.22 | 93 | 1014.0 |
| 20260502232048 | 56 | 57 | 0.0 | 2.0 | 0.18 | 0.22 | 0.21 | 93 | 1014.0 |
| 20260502231552 | 56 | 0 | 0.0 | 1.0 | 0.21 | 0.22 | 0.21 | 93 | 1014.3 |
| 20260502231049 | 56 | 0 | 0.0 | 1.0 | 0.20 | 0.22 | 0.20 | 93 | 1014.9 |
| 20260502230548 | 56 | 0 | 0.0 | 0.0 | 0.19 | 0.21 | 0.19 | 93 | 1015.3 |
| 20260502230047 | 56 | 0 | 0.0 | 1.0 | 0.18 | 0.19 | 0.18 | 92 | 1015.5 |
| 20260502225545 | 56 | 0 | 0.0 | 1.0 | 0.15 | 0.17 | 0.15 | 92 | 1015.4 |
| 20260502225047 | 56 | 0 | 0.0 | 0.0 | 0.14 | 0.16 | 0.14 | 92 | 1015.7 |
| 20260502224550 | 56 | 0 | 0.0 | 0.0 | 0.13 | 0.14 | 0.13 | 91 | 1015.8 |
| 20260502224047 | 56 | 0 | 0.0 | 1.0 | 0.13 | 0.13 | 0.11 | 92 | 1015.9 |
| 20260502223548 | 56 | 0 | 0.0 | 1.0 | 0.10 | 0.10 | 0.08 | 92 | 1016.1 |
| 20260502223050 | 57 | 0 | 0.0 | 2.0 | 0.08 | 0.08 | 0.07 | 91 | 1016.5 |
| 20260502222545 | 57 | 0 | 0.0 | 2.0 | 0.08 | 0.08 | 0.07 | 91 | 1016.5 |
| 20260502222048 | 57 | 0 | 0.0 | 2.0 | 0.04 | 0.04 | 0.03 | 91 | 1016.5 |
| 20260502221606 | 57 | 0 | 0.0 | 0.0 | 0.01 | 0.01 | 0.00 | 91 | 1016.3 |
| 20260502221045 | 57 | 0 | 0.0 | 0.0 | 0.01 | 0.01 | 0.00 | 90 | 1015.5 |
| 20260502220548 | 57 | 0 | 0.0 | 0.0 | 0.01 | 0.01 | 0.00 | 89 | 1015.1 |
| 20260502220100 | 57 | 0 | 0.0 | 0.0 | 0.01 | 0.01 | 0.00 | 89 | 1015.0 |
| 20260502215544 | 58 | 0 | 0.0 | 0.0 | 0.01 | 0.01 | 0.01 | 88 | 1015.2 |
| 20260502215045 | 58 | 0 | 0.0 | 0.0 | 0.01 | 0.01 | 0.01 | 86 | 1015.1 |
| 20260502214551 | 58 | 0 | 0.0 | 0.0 | 0.01 | 0.01 | 0.01 | 84 | 1015.2 |
| 20260502214045 | 58 | 0 | 0.0 | 0.0 | 0.00 | 0.00 | 0.00 | 83 | 1015.2 |
| 20260502213548 | 58 | 0 | 0.0 | 0.0 | 0.00 | 0.00 | 0.00 | 83 | 1015.4 |
| 20260502213051 | 58 | 0 | 0.0 | 0.0 | 0.00 | 0.00 | 0.00 | 84 | 1015.0 |
| 20260502212545 | 58 | 0 | 0.0 | 0.0 | 0.00 | 0.00 | 0.00 | 84 | 1014.9 |
| 20260502212048 | 58 | 0 | 0.0 | 0.0 | 0.00 | 0.00 | 0.00 | 85 | 1014.6 |
| 20260502211550 | 58 | 0 | 0.0 | 0.0 | 0.00 | 0.00 | 0.00 | 85 | 1014.6 |
| 20260502211048 | 58 | 0 | 0.0 | 0.0 | 0.00 | 0.00 | 0.00 | 86 | 1014.6 |
| 20260502210544 | 58 | 0 | 0.0 | 0.0 | 0.00 | 0.00 | 0.00 | 86 | 1014.6 |
| 20260502210107 | 58 | 0 | 0.0 | 0.0 | 0.00 | 0.00 | 0.00 | 86 | 1014.7 |
| 20260502205550 | 58 | 0 | 0.0 | 0.0 | 0.00 | 0.00 | 0.00 | 86 | 1014.8 |
| 20260502205044 | 58 | 0 | 0.0 | 0.0 | 0.00 | 0.00 | 0.00 | 86 | 1014.9 |
| 20260502204549 | 58 | 0 | 0.0 | 0.0 | 0.00 | 0.00 | 0.00 | 85 | 1014.9 |
| 20260502204048 | 59 | 0 | 0.0 | 0.0 | 0.00 | 0.00 | 0.00 | 85 | 1015.0 |
| 20260502203548 | 59 | 0 | 0.0 | 0.0 | 0.00 | 0.00 | 0.00 | 85 | 1015.1 |
| 20260502203048 | 59 | 0 | 0.0 | 0.0 | 0.00 | 0.00 | 0.00 | 85 | 1015.2 |
| 20260502202548 | 59 | 0 | 0.0 | 0.0 | 0.00 | 0.00 | 0.00 | 85 | 1015.3 |
| 20260502202052 | 59 | 0 | 0.0 | 0.0 | 0.00 | 0.00 | 0.00 | 84 | 1015.3 |
| 20260502201552 | 59 | 0 | 0.0 | 0.0 | 0.00 | 0.00 | 0.00 | 84 | 1015.3 |
| 20260502201045 | 59 | 0 | 0.0 | 0.0 | 0.00 | 0.00 | 0.00 | 83 | 1015.5 |
| 20260502200545 | 59 | 0 | 0.0 | 2.0 | 0.00 | 0.00 | 0.00 | 82 | 1015.6 |
| 20260502200114 | 60 | 0 | 0.0 | 2.0 | 0.00 | 0.00 | 0.00 | 81 | 1015.7 |
| 20260502195546 | 60 | 0 | 0.0 | 2.0 | 0.00 | 0.00 | 0.00 | 80 | 1015.8 |
| 20260502195044 | 60 | 0 | 0.0 | 2.0 | 0.00 | 0.00 | 0.00 | 78 | 1015.7 |
| 20260502194553 | 60 | 0 | 0.0 | 2.0 | 0.00 | 0.00 | 0.00 | 76 | 1015.8 |
| 20260502194044 | 60 | 0 | 0.0 | 2.0 | 0.00 | 0.00 | 0.00 | 73 | 1015.7 |
| 20260502193545 | 60 | 0 | 0.0 | 0.0 | 0.00 | 0.00 | 0.00 | 71 | 1015.7 |
| 20260502193051 | 60 | 0 | 0.0 | 0.0 | 0.00 | 0.00 | 0.00 | 70 | 1015.7 |
| 20260502192546 | 60 | 0 | 0.0 | 0.0 | 0.00 | 0.00 | 0.00 | 69 | 1015.7 |
| 20260502192044 | 61 | 0 | 0.0 | 0.0 | 0.00 | 0.00 | 0.00 | 68 | 1015.7 |
| 20260502191558 | 61 | 0 | 0.0 | 0.0 | 0.00 | 0.00 | 0.00 | 67 | 1015.8 |
| 20260502191050 | 62 | 0 | 0.0 | 0.0 | 0.00 | 0.00 | 0.00 | 66 | 1015.9 |
| 20260502190544 | 62 | 0 | 0.0 | 0.0 | 0.00 | 0.00 | 0.00 | 65 | 1015.7 |
| 20260502190051 | 62 | 0 | 0.0 | 1.0 | 0.00 | 0.00 | 0.00 | 63 | 1015.8 |
| 20260502185545 | 62 | 0 | 0.0 | 1.0 | 0.00 | 0.00 | 0.00 | 62 | 1015.7 |
| 20260502185046 | 63 | 0 | 0.0 | 1.0 | 0.00 | 0.00 | 0.00 | 62 | 1015.8 |
| 20260502184550 | 63 | 0 | 0.0 | 1.0 | 0.00 | 0.00 | 0.00 | 62 | 1015.8 |
| 20260502184048 | 63 | 0 | 0.0 | 2.0 | 0.00 | 0.00 | 0.00 | 62 | 1015.7 |
| 20260502183548 | 63 | 0 | 0.0 | 2.0 | 0.00 | 0.00 | 0.00 | 61 | 1015.8 |
| 20260502183052 | 63 | 0 | 0.0 | 0.0 | 0.00 | 0.00 | 0.00 | 61 | 1015.7 |
| 20260502182544 | 63 | 0 | 0.0 | 1.0 | 0.00 | 0.00 | 0.00 | 62 | 1015.7 |
| 20260502182045 | 64 | 0 | 0.0 | 1.0 | 0.00 | 0.00 | 0.00 | 62 | 1015.7 |
| 20260502181556 | 64 | 0 | 0.0 | 3.0 | 0.00 | 0.00 | 0.00 | 62 | 1015.8 |
| 20260502181044 | 64 | 0 | 0.0 | 3.0 | 0.00 | 0.00 | 0.00 | 62 | 1015.8 |
| 20260502180547 | 64 | 0 | 0.0 | 2.0 | 0.00 | 0.00 | 0.00 | 62 | 1015.7 |
| 20260502164044 | 71 | 0 | 0.0 | 3.0 | 0.00 | 0.00 | 0.00 | 56 | 1016.6 |
| 20260502163545 | 72 | 0 | 0.0 | 3.0 | 0.00 | 0.00 | 0.00 | 56 | 1016.7 |
| 20260502163100 | 71 | 0 | 0.0 | 3.0 | 0.00 | 0.00 | 0.00 | 57 | 1016.7 |
| 20260502162545 | 71 | 294 | 0.0 | 3.0 | 0.00 | 0.00 | 0.00 | 56 | 1016.6 |
| 20260502162048 | 72 | 0 | 0.0 | 3.0 | 0.00 | 0.00 | 0.00 | 57 | 1016.7 |
| 20260502161547 | 71 | 0 | 0.0 | 3.0 | 0.00 | 0.00 | 0.00 | 58 | 1016.7 |
| 20260502161047 | 71 | 319 | 0.0 | 4.0 | 0.00 | 0.00 | 0.00 | 57 | 1016.8 |
| 20260502160544 | 72 | 296 | 1.0 | 4.0 | 0.00 | 0.00 | 0.00 | 57 | 1016.9 |
| 20260502152045 | 73 | 0 | 1.0 | 7.0 | 0.00 | 0.00 | 0.00 | 61 | 1017.0 |
| 20260502151605 | 72 | 0 | 1.0 | 7.0 | 0.00 | 0.00 | 0.00 | 61 | 1017.1 |
| 20260502151047 | 72 | 0 | 0.0 | 5.0 | 0.00 | 0.00 | 0.00 | 60 | 1017.1 |
| 20260502150544 | 72 | 0 | 0.0 | 5.0 | 0.00 | 0.00 | 0.00 | 61 | 1017.1 |
| 20260502140118 | 72 | 0 | 0.0 | 4.0 | 0.00 | 0.00 | 0.00 | 65 | 1017.8 |
| 20260502130545 | 72 | 0 | 0.0 | 5.0 | 0.00 | 0.00 | 0.00 | 67 | 1018.0 |
| 20260502130103 | 72 | 301 | 1.0 | 5.0 | 0.00 | 0.00 | 0.00 | 66 | 1018.0 |
| 20260502123544 | 71 | 70 | 0.0 | 5.0 | 0.00 | 0.00 | 0.00 | 69 | 1018.5 |
| 20260502123054 | 70 | 0 | 0.0 | 5.0 | 0.00 | 0.00 | 0.00 | 69 | 1018.5 |
| 20260502122544 | 70 | 51 | 0.0 | 5.0 | 0.00 | 0.00 | 0.00 | 70 | 1018.6 |
| 20260502122045 | 69 | 74 | 0.0 | 11.0 | 0.00 | 0.00 | 0.00 | 71 | 1018.6 |
| 20260502121549 | 69 | 328 | 0.0 | 11.0 | 0.00 | 0.00 | 0.00 | 71 | 1018.7 |
| 20260502121046 | 69 | 0 | 1.0 | 11.0 | 0.00 | 0.00 | 0.00 | 69 | 1018.7 |
| 20260502120545 | 69 | 0 | 1.0 | 4.0 | 0.00 | 0.00 | 0.00 | 69 | 1018.8 |
| 20260502115544 | 71 | 311 | 1.0 | 4.0 | 0.00 | 0.00 | 0.00 | 68 | 1018.7 |
| 20260502115044 | 71 | 93 | 0.0 | 4.0 | 0.00 | 0.00 | 0.00 | 67 | 1018.6 |
| 20260502114547 | 71 | 129 | 0.0 | 5.0 | 0.00 | 0.00 | 0.00 | 69 | 1018.7 |
| 20260502114045 | 71 | 0 | 0.0 | 5.0 | 0.00 | 0.00 | 0.00 | 68 | 1018.8 |
| 20260502113544 | 71 | 310 | 1.0 | 5.0 | 0.00 | 0.00 | 0.00 | 70 | 1018.9 |
| 20260502113053 | 70 | 327 | 0.0 | 5.0 | 0.00 | 0.00 | 0.00 | 69 | 1018.8 |
| 20260502112543 | 70 | 308 | 1.0 | 5.0 | 0.00 | 0.00 | 0.00 | 70 | 1018.9 |
| 20260502112044 | 70 | 0 | 0.0 | 3.0 | 0.00 | 0.00 | 0.00 | 69 | 1018.9 |
| 20260502111553 | 70 | 0 | 0.0 | 4.0 | 0.00 | 0.00 | 0.00 | 69 | 1018.9 |
| 20260502111046 | 70 | 0 | 0.0 | 6.0 | 0.00 | 0.00 | 0.00 | 69 | 1019.0 |
| 20260502110546 | 70 | 70 | 1.0 | 7.0 | 0.00 | 0.00 | 0.00 | 68 | 1019.1 |
| 20260502110059 | 70 | 155 | 1.0 | 7.0 | 0.00 | 0.00 | 0.00 | 68 | 1019.2 |
| 20260502105545 | 70 | 0 | 1.0 | 7.0 | 0.00 | 0.00 | 0.00 | 69 | 1019.2 |
| 20260502105044 | 69 | 322 | 0.0 | 4.0 | 0.00 | 0.00 | 0.00 | 70 | 1019.1 |
| 20260502104550 | 69 | 0 | 0.0 | 4.0 | 0.00 | 0.00 | 0.00 | 69 | 1019.1 |
| 20260502104044 | 69 | 0 | 0.0 | 4.0 | 0.00 | 0.00 | 0.00 | 70 | 1019.1 |
| 20260502103545 | 69 | 149 | 1.0 | 4.0 | 0.00 | 0.00 | 0.00 | 70 | 1019.2 |
| 20260502103054 | 69 | 111 | 0.0 | 4.0 | 0.00 | 0.00 | 0.00 | 70 | 1019.2 |
| 20260502102545 | 68 | 312 | 0.0 | 6.0 | 0.00 | 0.00 | 0.00 | 71 | 1019.3 |
| 20260502102047 | 68 | 45 | 1.0 | 7.0 | 0.00 | 0.00 | 0.00 | 70 | 1019.3 |
| 20260502101557 | 68 | 63 | 1.0 | 7.0 | 0.00 | 0.00 | 0.00 | 71 | 1019.4 |
| 20260502101046 | 68 | 52 | 0.0 | 4.0 | 0.00 | 0.00 | 0.00 | 72 | 1019.3 |
| 20260502100546 | 67 | 86 | 0.0 | 3.0 | 0.00 | 0.00 | 0.00 | 72 | 1019.3 |
| 20260502091044 | 62 | 0 | 0.0 | 0.0 | 0.00 | 0.00 | 0.00 | 75 | 1019.3 |
| 20260502090544 | 62 | 0 | 0.0 | 0.0 | 0.00 | 0.00 | 0.00 | 75 | 1019.3 |
| 20260502090113 | 62 | 0 | 0.0 | 0.0 | 0.00 | 0.00 | 0.00 | 74 | 1019.2 |
| 20260502071047 | 56 | 0 | 0.0 | 0.0 | 0.00 | 0.00 | 0.00 | 72 | 1019.3 |
| 20260502070546 | 56 | 0 | 0.0 | 0.0 | 0.00 | 0.00 | 0.00 | 72 | 1019.4 |
| 20260502070110 | 56 | 0 | 0.0 | 2.0 | 0.00 | 0.00 | 0.00 | 71 | 1019.5 |
| 20260502065548 | 56 | 0 | 0.0 | 2.0 | 0.00 | 0.00 | 0.00 | 69 | 1019.5 |
| 20260502065044 | 56 | 0 | 0.0 | 0.0 | 0.00 | 0.00 | 0.00 | 72 | 1019.6 |
| 20260502064605 | 55 | 0 | 0.0 | 0.0 | 0.00 | 0.00 | 0.00 | 72 | 1019.5 |
| 20260502064043 | 55 | 0 | 0.0 | 0.0 | 0.00 | 0.00 | 0.00 | 71 | 1019.4 |
| 20260502063544 | 55 | 0 | 0.0 | 1.0 | 0.00 | 0.00 | 0.00 | 71 | 1019.4 |
| 20260502063053 | 55 | 0 | 0.0 | 1.0 | 0.00 | 0.00 | 0.00 | 71 | 1019.4 |
| 20260502062544 | 55 | 0 | 0.0 | 0.0 | 0.00 | 0.00 | 0.00 | 70 | 1019.4 |
| 20260502062044 | 54 | 0 | 0.0 | 1.0 | 0.00 | 0.00 | 0.00 | 71 | 1019.4 |
| 20260502061553 | 54 | 0 | 0.0 | 3.0 | 0.00 | 0.00 | 0.00 | 71 | 1019.4 |
| 20260502061047 | 54 | 0 | 0.0 | 3.0 | 0.00 | 0.00 | 0.00 | 72 | 1019.5 |
| 20260502060547 | 54 | 0 | 0.0 | 1.0 | 0.00 | 0.00 | 0.00 | 74 | 1019.6 |
| 20260502060053 | 53 | 0 | 0.0 | 0.0 | 0.00 | 0.00 | 0.00 | 75 | 1019.5 |
| 20260502055546 | 53 | 0 | 0.0 | 0.0 | 0.00 | 0.00 | 0.00 | 75 | 1019.4 |
| 20260502055048 | 52 | 0 | 0.0 | 0.0 | 0.00 | 0.00 | 0.00 | 75 | 1019.3 |
| 20260502054559 | 52 | 0 | 0.0 | 0.0 | 0.00 | 0.00 | 0.00 | 75 | 1019.1 |
| 20260502054051 | 52 | 0 | 0.0 | 0.0 | 0.00 | 0.00 | 0.00 | 75 | 1019.0 |
| 20260502053548 | 52 | 0 | 0.0 | 0.0 | 0.00 | 0.00 | 0.00 | 75 | 1019.0 |
| 20260502053054 | 52 | 0 | 0.0 | 0.0 | 0.00 | 0.00 | 0.00 | 75 | 1019.1 |
| 20260502052547 | 51 | 0 | 0.0 | 0.0 | 0.00 | 0.00 | 0.00 | 76 | 1019.0 |
| 20260502052043 | 51 | 0 | 0.0 | 0.0 | 0.00 | 0.00 | 0.00 | 76 | 1019.2 |
| 20260502051553 | 51 | 0 | 0.0 | 1.0 | 0.00 | 0.00 | 0.00 | 77 | 1019.2 |
| 20260502051044 | 50 | 0 | 0.0 | 2.0 | 0.00 | 0.00 | 0.00 | 76 | 1019.3 |
| 20260502050543 | 50 | 0 | 0.0 | 2.0 | 0.00 | 0.00 | 0.00 | 76 | 1019.2 |
| 20260502050051 | 50 | 0 | 0.0 | 1.0 | 0.00 | 0.00 | 0.00 | 77 | 1019.2 |
| 20260502045544 | 49 | 0 | 0.0 | 0.0 | 0.00 | 0.00 | 0.00 | 77 | 1019.3 |
| 20260502045048 | 49 | 0 | 0.0 | 0.0 | 0.00 | 0.00 | 0.00 | 77 | 1019.4 |
| 20260502044554 | 49 | 0 | 0.0 | 0.0 | 0.00 | 0.00 | 0.00 | 78 | 1019.2 |
| 20260502044046 | 49 | 0 | 0.0 | 0.0 | 0.00 | 0.00 | 0.00 | 78 | 1019.2 |
| 20260502043547 | 49 | 0 | 0.0 | 0.0 | 0.00 | 0.00 | 0.00 | 78 | 1019.2 |
| 20260502043050 | 49 | 0 | 0.0 | 0.0 | 0.00 | 0.00 | 0.00 | 78 | 1019.1 |
| 20260502042547 | 49 | 0 | 0.0 | 0.0 | 0.00 | 0.00 | 0.00 | 77 | 1019.1 |
| 20260502042048 | 49 | 0 | 0.0 | 0.0 | 0.00 | 0.00 | 0.00 | 77 | 1019.1 |
| 20260502041559 | 49 | 0 | 0.0 | 0.0 | 0.00 | 0.00 | 0.00 | 77 | 1019.1 |
| 20260502041047 | 49 | 0 | 0.0 | 0.0 | 0.00 | 0.00 | 0.00 | 77 | 1019.1 |
| 20260502040548 | 49 | 0 | 0.0 | 0.0 | 0.00 | 0.00 | 0.00 | 77 | 1019.1 |
| 20260502040058 | 49 | 0 | 0.0 | 0.0 | 0.00 | 0.00 | 0.00 | 77 | 1019.2 |
| 20260502035549 | 49 | 0 | 0.0 | 0.0 | 0.00 | 0.00 | 0.00 | 77 | 1019.2 |
| 20260502035047 | 49 | 0 | 0.0 | 0.0 | 0.00 | 0.00 | 0.00 | 77 | 1019.3 |
| 20260502034556 | 49 | 0 | 0.0 | 0.0 | 0.00 | 0.00 | 0.00 | 76 | 1019.4 |
| 20260502034047 | 49 | 0 | 0.0 | 0.0 | 0.00 | 0.00 | 0.00 | 75 | 1019.3 |
| 20260502033549 | 50 | 0 | 0.0 | 0.0 | 0.00 | 0.00 | 0.00 | 75 | 1019.4 |
| 20260502033108 | 50 | 0 | 0.0 | 0.0 | 0.00 | 0.00 | 0.00 | 76 | 1019.4 |
| 20260502032548 | 50 | 0 | 0.0 | 0.0 | 0.00 | 0.00 | 0.00 | 75 | 1019.6 |
| 20260502032051 | 50 | 0 | 0.0 | 0.0 | 0.00 | 0.00 | 0.00 | 75 | 1019.5 |
| 20260502031601 | 50 | 0 | 0.0 | 0.0 | 0.00 | 0.00 | 0.00 | 74 | 1019.6 |
| 20260502031045 | 50 | 0 | 0.0 | 0.0 | 0.00 | 0.00 | 0.00 | 74 | 1019.6 |
| 20260502030546 | 50 | 0 | 0.0 | 0.0 | 0.00 | 0.00 | 0.00 | 74 | 1019.6 |
| 20260502030058 | 50 | 0 | 0.0 | 0.0 | 0.00 | 0.00 | 0.00 | 74 | 1019.7 |
| 20260502025546 | 50 | 0 | 0.0 | 0.0 | 0.00 | 0.00 | 0.00 | 73 | 1019.7 |
| 20260502025048 | 50 | 0 | 0.0 | 0.0 | 0.00 | 0.00 | 0.00 | 73 | 1019.7 |
| 20260502024607 | 51 | 0 | 0.0 | 0.0 | 0.00 | 0.00 | 0.00 | 73 | 1019.7 |
| 20260502024047 | 51 | 0 | 0.0 | 0.0 | 0.00 | 0.00 | 0.00 | 72 | 1019.8 |
| 20260502023547 | 51 | 0 | 0.0 | 0.0 | 0.00 | 0.00 | 0.00 | 72 | 1019.8 |
| 20260502023108 | 51 | 0 | 0.0 | 0.0 | 0.00 | 0.00 | 0.00 | 72 | 1019.7 |
| 20260502022549 | 51 | 0 | 0.0 | 0.0 | 0.00 | 0.00 | 0.00 | 71 | 1019.8 |
| 20260502022046 | 51 | 0 | 0.0 | 0.0 | 0.00 | 0.00 | 0.00 | 72 | 1019.9 |
| 20260502021552 | 51 | 0 | 0.0 | 0.0 | 0.00 | 0.00 | 0.00 | 71 | 1019.9 |
| 20260502021047 | 51 | 0 | 0.0 | 0.0 | 0.00 | 0.00 | 0.00 | 71 | 1019.9 |
| 20260502020548 | 51 | 0 | 0.0 | 0.0 | 0.00 | 0.00 | 0.00 | 70 | 1019.9 |
| 20260502020056 | 51 | 0 | 0.0 | 0.0 | 0.00 | 0.00 | 0.00 | 70 | 1020.0 |
| 20260502015548 | 52 | 0 | 0.0 | 0.0 | 0.00 | 0.00 | 0.00 | 70 | 1019.9 |
| 20260502015048 | 52 | 0 | 0.0 | 0.0 | 0.00 | 0.00 | 0.00 | 70 | 1020.1 |
| 20260502014553 | 52 | 0 | 0.0 | 0.0 | 0.00 | 0.00 | 0.00 | 70 | 1020.1 |
| 20260502014047 | 52 | 0 | 0.0 | 0.0 | 0.00 | 0.00 | 0.00 | 70 | 1020.0 |
| 20260502013546 | 52 | 0 | 0.0 | 0.0 | 0.00 | 0.00 | 0.00 | 70 | 1020.0 |
| 20260502013056 | 52 | 0 | 0.0 | 0.0 | 0.00 | 0.00 | 0.00 | 70 | 1020.1 |
| 20260502012545 | 52 | 0 | 0.0 | 0.0 | 0.00 | 0.00 | 0.00 | 69 | 1020.0 |
| 20260502012047 | 53 | 0 | 0.0 | 0.0 | 0.00 | 0.00 | 0.00 | 68 | 1020.1 |
| 20260502011556 | 53 | 0 | 0.0 | 0.0 | 0.00 | 0.00 | 0.00 | 68 | 1020.2 |
| 20260502011046 | 53 | 0 | 0.0 | 0.0 | 0.00 | 0.00 | 0.00 | 67 | 1020.2 |
| 20260502010546 | 53 | 0 | 0.0 | 0.0 | 0.00 | 0.00 | 0.00 | 67 | 1020.5 |
| 20260502010055 | 54 | 0 | 0.0 | 0.0 | 0.00 | 0.00 | 0.00 | 65 | 1020.4 |
| 20260502005548 | 54 | 0 | 0.0 | 0.0 | 0.00 | 0.00 | 0.00 | 65 | 1020.4 |
| 20260502005049 | 54 | 0 | 0.0 | 0.0 | 0.00 | 0.00 | 0.00 | 65 | 1020.6 |